sensor_id;sensor_type;location;lat;lon;timestamp;temperature;humidity
909;DHT22;441;51.192;6.788;2023-01-15T00:01:33;21.60;58.30
909;DHT22;441;51.192;6.788;2023-01-15T00:04:02;21.60;58.50
909;DHT22;441;51.192;6.788;2023-01-15T00:06:30;21.50;58.60
909;DHT22;441;51.192;6.788;2023-01-15T00:08:58;21.40;58.70
909;DHT22;441;51.192;6.788;2023-01-15T00:11:24;21.40;58.90
909;DHT22;441;51.192;6.788;2023-01-15T00:13:52;21.30;59.00
909;DHT22;441;51.192;6.788;2023-01-15T00:16:20;21.30;59.10
909;DHT22;441;51.192;6.788;2023-01-15T00:18:54;21.20;59.20
909;DHT22;441;51.192;6.788;2023-01-15T00:21:22;21.20;59.40
909;DHT22;441;51.192;6.788;2023-01-15T00:23:49;21.20;59.50
909;DHT22;441;51.192;6.788;2023-01-15T00:26:35;21.20;59.50
909;DHT22;441;51.192;6.788;2023-01-15T00:29:20;21.10;59.60
909;DHT22;441;51.192;6.788;2023-01-15T00:31:52;21.10;59.80
909;DHT22;441;51.192;6.788;2023-01-15T00:34:21;21.00;59.80
909;DHT22;441;51.192;6.788;2023-01-15T00:36:49;21.00;59.90
909;DHT22;441;51.192;6.788;2023-01-15T00:39:16;20.90;60.00
909;DHT22;441;51.192;6.788;2023-01-15T00:41:43;20.90;60.20
909;DHT22;441;51.192;6.788;2023-01-15T00:44:10;20.90;60.40
909;DHT22;441;51.192;6.788;2023-01-15T00:46:37;20.90;60.50
909;DHT22;441;51.192;6.788;2023-01-15T00:49:05;20.80;60.60
909;DHT22;441;51.192;6.788;2023-01-15T00:51:33;20.80;60.70
909;DHT22;441;51.192;6.788;2023-01-15T00:54:01;20.80;60.80
909;DHT22;441;51.192;6.788;2023-01-15T00:56:28;20.70;60.80
909;DHT22;441;51.192;6.788;2023-01-15T00:58:56;20.70;61.00
909;DHT22;441;51.192;6.788;2023-01-15T01:01:24;20.70;61.10
909;DHT22;441;51.192;6.788;2023-01-15T01:03:51;20.70;61.10
909;DHT22;441;51.192;6.788;2023-01-15T01:06:19;20.70;61.20
909;DHT22;441;51.192;6.788;2023-01-15T01:08:47;20.70;61.20
909;DHT22;441;51.192;6.788;2023-01-15T01:11:16;20.60;61.30
909;DHT22;441;51.192;6.788;2023-01-15T01:13:44;20.60;61.30
909;DHT22;441;51.192;6.788;2023-01-15T01:16:22;20.60;61.40
909;DHT22;441;51.192;6.788;2023-01-15T01:18:49;20.60;61.60
909;DHT22;441;51.192;6.788;2023-01-15T01:21:16;20.50;61.60
909;DHT22;441;51.192;6.788;2023-01-15T01:23:43;20.50;61.70
909;DHT22;441;51.192;6.788;2023-01-15T01:26:12;20.50;61.80
909;DHT22;441;51.192;6.788;2023-01-15T01:28:39;20.50;62.00
909;DHT22;441;51.192;6.788;2023-01-15T01:31:06;20.50;62.00
909;DHT22;441;51.192;6.788;2023-01-15T01:33:34;20.50;62.20
909;DHT22;441;51.192;6.788;2023-01-15T01:36:01;20.50;62.20
909;DHT22;441;51.192;6.788;2023-01-15T01:38:28;20.50;62.30
909;DHT22;441;51.192;6.788;2023-01-15T01:40:55;20.40;62.30
909;DHT22;441;51.192;6.788;2023-01-15T01:43:25;20.40;62.40
909;DHT22;441;51.192;6.788;2023-01-15T01:45:52;20.40;62.50
909;DHT22;441;51.192;6.788;2023-01-15T01:48:23;20.40;62.50
909;DHT22;441;51.192;6.788;2023-01-15T01:50:53;20.30;62.50
909;DHT22;441;51.192;6.788;2023-01-15T01:53:24;20.30;62.70
909;DHT22;441;51.192;6.788;2023-01-15T01:55:53;20.30;62.80
909;DHT22;441;51.192;6.788;2023-01-15T01:58:23;20.30;62.90
909;DHT22;441;51.192;6.788;2023-01-15T02:00:52;20.30;62.90
909;DHT22;441;51.192;6.788;2023-01-15T02:03:22;20.30;63.00
909;DHT22;441;51.192;6.788;2023-01-15T02:05:54;20.30;63.00
909;DHT22;441;51.192;6.788;2023-01-15T02:08:22;20.30;62.90
909;DHT22;441;51.192;6.788;2023-01-15T02:10:52;20.30;63.00
909;DHT22;441;51.192;6.788;2023-01-15T02:13:26;20.20;63.00
909;DHT22;441;51.192;6.788;2023-01-15T02:16:01;20.20;63.10
909;DHT22;441;51.192;6.788;2023-01-15T02:18:35;20.20;63.10
909;DHT22;441;51.192;6.788;2023-01-15T02:21:10;20.20;63.20
909;DHT22;441;51.192;6.788;2023-01-15T02:23:59;20.20;63.30
909;DHT22;441;51.192;6.788;2023-01-15T02:26:50;20.10;63.30
909;DHT22;441;51.192;6.788;2023-01-15T02:29:26;20.10;63.50
909;DHT22;441;51.192;6.788;2023-01-15T02:31:55;20.10;63.50
909;DHT22;441;51.192;6.788;2023-01-15T02:34:25;20.10;63.70
909;DHT22;441;51.192;6.788;2023-01-15T02:36:58;20.10;63.70
909;DHT22;441;51.192;6.788;2023-01-15T02:39:28;20.10;63.60
909;DHT22;441;51.192;6.788;2023-01-15T02:41:59;20.10;63.70
909;DHT22;441;51.192;6.788;2023-01-15T02:44:28;20.10;63.80
909;DHT22;441;51.192;6.788;2023-01-15T02:46:57;20.10;63.70
909;DHT22;441;51.192;6.788;2023-01-15T02:49:24;20.10;63.80
909;DHT22;441;51.192;6.788;2023-01-15T02:51:54;20.10;64.50
909;DHT22;441;51.192;6.788;2023-01-15T02:54:25;20.10;63.90
909;DHT22;441;51.192;6.788;2023-01-15T02:56:54;20.00;63.80
909;DHT22;441;51.192;6.788;2023-01-15T02:59:26;20.00;63.90
909;DHT22;441;51.192;6.788;2023-01-15T03:01:58;20.00;63.80
909;DHT22;441;51.192;6.788;2023-01-15T03:04:29;20.00;63.90
909;DHT22;441;51.192;6.788;2023-01-15T03:07:00;20.00;63.90
909;DHT22;441;51.192;6.788;2023-01-15T03:09:31;20.00;64.00
909;DHT22;441;51.192;6.788;2023-01-15T03:12:03;20.00;64.10
909;DHT22;441;51.192;6.788;2023-01-15T03:14:36;20.00;64.90
909;DHT22;441;51.192;6.788;2023-01-15T03:17:13;20.00;64.30
909;DHT22;441;51.192;6.788;2023-01-15T03:19:44;20.00;64.10
909;DHT22;441;51.192;6.788;2023-01-15T03:22:17;20.00;64.10
909;DHT22;441;51.192;6.788;2023-01-15T03:24:48;20.00;64.20
909;DHT22;441;51.192;6.788;2023-01-15T03:27:16;19.90;64.20
909;DHT22;441;51.192;6.788;2023-01-15T03:29:47;19.90;64.30
909;DHT22;441;51.192;6.788;2023-01-15T03:32:16;19.90;64.40
909;DHT22;441;51.192;6.788;2023-01-15T03:34:49;19.90;64.40
909;DHT22;441;51.192;6.788;2023-01-15T03:37:17;19.90;64.30
909;DHT22;441;51.192;6.788;2023-01-15T03:39:45;19.90;64.40
909;DHT22;441;51.192;6.788;2023-01-15T03:42:22;19.90;64.50
909;DHT22;441;51.192;6.788;2023-01-15T03:44:56;19.90;64.60
909;DHT22;441;51.192;6.788;2023-01-15T03:47:38;19.90;64.50
909;DHT22;441;51.192;6.788;2023-01-15T03:50:13;19.90;65.40
909;DHT22;441;51.192;6.788;2023-01-15T03:52:45;19.90;64.60
909;DHT22;441;51.192;6.788;2023-01-15T03:55:16;19.90;64.60
909;DHT22;441;51.192;6.788;2023-01-15T03:57:48;19.90;64.50
909;DHT22;441;51.192;6.788;2023-01-15T04:00:21;19.90;64.50
909;DHT22;441;51.192;6.788;2023-01-15T04:02:52;19.90;64.50
909;DHT22;441;51.192;6.788;2023-01-15T04:05:19;19.80;65.20
909;DHT22;441;51.192;6.788;2023-01-15T04:07:48;19.90;64.70
909;DHT22;441;51.192;6.788;2023-01-15T04:10:16;19.80;64.60
909;DHT22;441;51.192;6.788;2023-01-15T04:12:42;19.80;64.60
909;DHT22;441;51.192;6.788;2023-01-15T04:15:10;19.80;64.70
909;DHT22;441;51.192;6.788;2023-01-15T04:17:38;19.90;64.70
909;DHT22;441;51.192;6.788;2023-01-15T04:20:06;19.80;64.70
909;DHT22;441;51.192;6.788;2023-01-15T04:22:33;19.90;64.80
909;DHT22;441;51.192;6.788;2023-01-15T04:25:00;19.90;64.70
909;DHT22;441;51.192;6.788;2023-01-15T04:27:27;19.90;64.70
909;DHT22;441;51.192;6.788;2023-01-15T04:29:54;19.80;64.60
909;DHT22;441;51.192;6.788;2023-01-15T04:32:21;19.80;64.60
909;DHT22;441;51.192;6.788;2023-01-15T04:34:49;19.80;64.50
909;DHT22;441;51.192;6.788;2023-01-15T04:37:16;19.90;64.70
909;DHT22;441;51.192;6.788;2023-01-15T04:39:43;19.80;64.40
909;DHT22;441;51.192;6.788;2023-01-15T04:42:11;19.90;64.40
909;DHT22;441;51.192;6.788;2023-01-15T04:44:56;19.80;64.40
909;DHT22;441;51.192;6.788;2023-01-15T04:47:23;19.80;64.60
909;DHT22;441;51.192;6.788;2023-01-15T04:49:51;19.80;64.50
909;DHT22;441;51.192;6.788;2023-01-15T04:52:18;19.90;64.70
909;DHT22;441;51.192;6.788;2023-01-15T04:54:45;19.90;64.60
909;DHT22;441;51.192;6.788;2023-01-15T04:57:12;19.90;64.60
909;DHT22;441;51.192;6.788;2023-01-15T04:59:39;19.80;64.50
909;DHT22;441;51.192;6.788;2023-01-15T05:02:05;19.90;64.70
909;DHT22;441;51.192;6.788;2023-01-15T05:04:33;19.80;64.50
909;DHT22;441;51.192;6.788;2023-01-15T05:07:02;19.90;64.60
909;DHT22;441;51.192;6.788;2023-01-15T05:09:29;19.80;64.50
909;DHT22;441;51.192;6.788;2023-01-15T05:11:56;19.80;64.40
909;DHT22;441;51.192;6.788;2023-01-15T05:14:23;19.80;64.50
909;DHT22;441;51.192;6.788;2023-01-15T05:16:50;19.80;64.40
909;DHT22;441;51.192;6.788;2023-01-15T05:19:17;19.80;64.50
909;DHT22;441;51.192;6.788;2023-01-15T05:21:44;19.80;64.50
909;DHT22;441;51.192;6.788;2023-01-15T05:24:13;19.80;64.30
909;DHT22;441;51.192;6.788;2023-01-15T05:26:41;19.80;64.30
909;DHT22;441;51.192;6.788;2023-01-15T05:29:08;19.80;64.40
909;DHT22;441;51.192;6.788;2023-01-15T05:31:36;19.80;64.30
909;DHT22;441;51.192;6.788;2023-01-15T05:34:02;19.80;64.40
909;DHT22;441;51.192;6.788;2023-01-15T05:36:30;19.80;64.50
909;DHT22;441;51.192;6.788;2023-01-15T05:38:58;19.80;64.50
909;DHT22;441;51.192;6.788;2023-01-15T05:41:28;19.80;64.60
909;DHT22;441;51.192;6.788;2023-01-15T05:44:13;19.80;64.60
909;DHT22;441;51.192;6.788;2023-01-15T05:46:41;19.80;64.70
909;DHT22;441;51.192;6.788;2023-01-15T05:49:10;19.80;64.60
909;DHT22;441;51.192;6.788;2023-01-15T05:51:38;19.80;64.80
909;DHT22;441;51.192;6.788;2023-01-15T05:54:09;19.80;64.70
909;DHT22;441;51.192;6.788;2023-01-15T05:56:38;19.80;64.60
909;DHT22;441;51.192;6.788;2023-01-15T05:59:06;19.80;64.70
909;DHT22;441;51.192;6.788;2023-01-15T06:01:33;19.70;64.50
909;DHT22;441;51.192;6.788;2023-01-15T06:04:01;19.70;64.50
909;DHT22;441;51.192;6.788;2023-01-15T06:06:28;19.80;64.60
909;DHT22;441;51.192;6.788;2023-01-15T06:08:55;19.70;65.10
909;DHT22;441;51.192;6.788;2023-01-15T06:11:22;19.80;64.60
909;DHT22;441;51.192;6.788;2023-01-15T06:13:51;19.80;64.60
909;DHT22;441;51.192;6.788;2023-01-15T06:16:18;19.70;64.50
909;DHT22;441;51.192;6.788;2023-01-15T06:18:45;19.70;64.60
909;DHT22;441;51.192;6.788;2023-01-15T06:21:13;19.80;64.70
909;DHT22;441;51.192;6.788;2023-01-15T06:23:41;19.70;64.50
909;DHT22;441;51.192;6.788;2023-01-15T06:26:11;19.70;64.50
909;DHT22;441;51.192;6.788;2023-01-15T06:28:38;19.70;64.50
909;DHT22;441;51.192;6.788;2023-01-15T06:31:07;19.70;64.50
909;DHT22;441;51.192;6.788;2023-01-15T06:33:35;19.70;64.40
909;DHT22;441;51.192;6.788;2023-01-15T06:36:02;19.70;64.30
909;DHT22;441;51.192;6.788;2023-01-15T06:38:30;19.70;64.50
909;DHT22;441;51.192;6.788;2023-01-15T06:40:58;19.70;64.50
909;DHT22;441;51.192;6.788;2023-01-15T06:43:25;19.70;64.50
909;DHT22;441;51.192;6.788;2023-01-15T06:46:11;19.70;64.50
909;DHT22;441;51.192;6.788;2023-01-15T06:48:55;19.70;64.50
909;DHT22;441;51.192;6.788;2023-01-15T06:51:22;19.70;64.60
909;DHT22;441;51.192;6.788;2023-01-15T06:53:49;19.70;64.70
909;DHT22;441;51.192;6.788;2023-01-15T06:56:16;19.70;64.80
909;DHT22;441;51.192;6.788;2023-01-15T06:58:43;19.70;64.90
909;DHT22;441;51.192;6.788;2023-01-15T07:01:13;19.70;64.90
909;DHT22;441;51.192;6.788;2023-01-15T07:03:40;19.80;65.30
909;DHT22;441;51.192;6.788;2023-01-15T07:06:09;19.70;65.40
909;DHT22;441;51.192;6.788;2023-01-15T07:08:37;19.70;65.20
909;DHT22;441;51.192;6.788;2023-01-15T07:11:05;19.70;65.20
909;DHT22;441;51.192;6.788;2023-01-15T07:13:33;19.70;65.20
909;DHT22;441;51.192;6.788;2023-01-15T07:16:01;19.70;65.30
909;DHT22;441;51.192;6.788;2023-01-15T07:18:31;19.80;65.30
909;DHT22;441;51.192;6.788;2023-01-15T07:20:59;19.70;65.20
909;DHT22;441;51.192;6.788;2023-01-15T07:23:26;19.70;65.10
909;DHT22;441;51.192;6.788;2023-01-15T07:25:54;19.70;65.20
909;DHT22;441;51.192;6.788;2023-01-15T07:28:22;19.70;65.20
909;DHT22;441;51.192;6.788;2023-01-15T07:30:49;19.70;65.00
909;DHT22;441;51.192;6.788;2023-01-15T07:33:16;19.70;65.00
909;DHT22;441;51.192;6.788;2023-01-15T07:35:44;19.70;65.10
909;DHT22;441;51.192;6.788;2023-01-15T07:38:11;19.70;65.10
909;DHT22;441;51.192;6.788;2023-01-15T07:40:38;19.70;65.10
909;DHT22;441;51.192;6.788;2023-01-15T07:43:05;19.70;65.10
909;DHT22;441;51.192;6.788;2023-01-15T07:45:49;19.70;65.10
909;DHT22;441;51.192;6.788;2023-01-15T07:48:30;19.70;65.80
909;DHT22;441;51.192;6.788;2023-01-15T07:51:16;19.70;64.80
909;DHT22;441;51.192;6.788;2023-01-15T07:53:43;19.70;64.90
909;DHT22;441;51.192;6.788;2023-01-15T07:56:10;19.70;64.90
909;DHT22;441;51.192;6.788;2023-01-15T07:58:37;19.70;64.90
909;DHT22;441;51.192;6.788;2023-01-15T08:01:04;19.70;64.70
909;DHT22;441;51.192;6.788;2023-01-15T08:03:31;19.70;64.60
909;DHT22;441;51.192;6.788;2023-01-15T08:05:57;19.70;64.50
909;DHT22;441;51.192;6.788;2023-01-15T08:08:26;19.70;64.40
909;DHT22;441;51.192;6.788;2023-01-15T08:10:53;19.70;64.30
909;DHT22;441;51.192;6.788;2023-01-15T08:13:39;19.70;64.30
909;DHT22;441;51.192;6.788;2023-01-15T08:16:23;19.70;64.40
909;DHT22;441;51.192;6.788;2023-01-15T08:18:50;19.60;64.40
909;DHT22;441;51.192;6.788;2023-01-15T08:21:17;19.70;64.50
909;DHT22;441;51.192;6.788;2023-01-15T08:23:46;19.70;64.60
909;DHT22;441;51.192;6.788;2023-01-15T08:26:15;19.70;64.80
909;DHT22;441;51.192;6.788;2023-01-15T08:28:42;19.70;64.90
909;DHT22;441;51.192;6.788;2023-01-15T08:31:09;19.60;64.70
909;DHT22;441;51.192;6.788;2023-01-15T08:33:36;19.60;64.60
909;DHT22;441;51.192;6.788;2023-01-15T08:36:03;19.60;64.60
909;DHT22;441;51.192;6.788;2023-01-15T08:38:30;19.60;64.60
909;DHT22;441;51.192;6.788;2023-01-15T08:40:58;19.60;64.50
909;DHT22;441;51.192;6.788;2023-01-15T08:43:25;19.60;64.40
909;DHT22;441;51.192;6.788;2023-01-15T08:45:55;19.60;64.30
909;DHT22;441;51.192;6.788;2023-01-15T08:48:22;19.60;64.50
909;DHT22;441;51.192;6.788;2023-01-15T08:50:49;19.60;64.60
909;DHT22;441;51.192;6.788;2023-01-15T08:53:17;19.60;64.60
909;DHT22;441;51.192;6.788;2023-01-15T08:55:44;19.60;65.30
909;DHT22;441;51.192;6.788;2023-01-15T08:58:13;19.60;64.40
909;DHT22;441;51.192;6.788;2023-01-15T09:00:41;19.60;64.30
909;DHT22;441;51.192;6.788;2023-01-15T09:03:08;19.60;64.40
909;DHT22;441;51.192;6.788;2023-01-15T09:05:35;19.60;64.30
909;DHT22;441;51.192;6.788;2023-01-15T09:08:03;19.60;64.20
909;DHT22;441;51.192;6.788;2023-01-15T09:10:30;19.60;64.30
909;DHT22;441;51.192;6.788;2023-01-15T09:12:58;19.60;64.30
909;DHT22;441;51.192;6.788;2023-01-15T09:15:27;19.60;65.00
909;DHT22;441;51.192;6.788;2023-01-15T09:17:54;19.60;64.10
909;DHT22;441;51.192;6.788;2023-01-15T09:20:22;19.60;64.10
909;DHT22;441;51.192;6.788;2023-01-15T09:22:49;19.60;64.00
909;DHT22;441;51.192;6.788;2023-01-15T09:25:16;19.60;64.00
909;DHT22;441;51.192;6.788;2023-01-15T09:27:44;19.60;64.00
909;DHT22;441;51.192;6.788;2023-01-15T09:30:15;19.60;63.90
909;DHT22;441;51.192;6.788;2023-01-15T09:32:43;19.60;63.90
909;DHT22;441;51.192;6.788;2023-01-15T09:35:10;19.60;64.00
909;DHT22;441;51.192;6.788;2023-01-15T09:37:37;19.60;64.00
909;DHT22;441;51.192;6.788;2023-01-15T09:40:06;19.60;64.10
909;DHT22;441;51.192;6.788;2023-01-15T09:42:42;19.60;64.20
909;DHT22;441;51.192;6.788;2023-01-15T09:45:19;19.60;64.30
909;DHT22;441;51.192;6.788;2023-01-15T09:48:06;19.70;64.00
909;DHT22;441;51.192;6.788;2023-01-15T09:50:46;19.80;63.70
909;DHT22;441;51.192;6.788;2023-01-15T09:53:38;19.90;63.70
909;DHT22;441;51.192;6.788;2023-01-15T09:56:15;19.90;63.40
909;DHT22;441;51.192;6.788;2023-01-15T09:58:45;20.00;63.10
909;DHT22;441;51.192;6.788;2023-01-15T10:01:15;20.00;63.10
909;DHT22;441;51.192;6.788;2023-01-15T10:03:48;20.10;63.30
909;DHT22;441;51.192;6.788;2023-01-15T10:06:20;20.20;63.20
909;DHT22;441;51.192;6.788;2023-01-15T10:08:49;20.20;62.40
909;DHT22;441;51.192;6.788;2023-01-15T10:11:34;20.30;62.40
909;DHT22;441;51.192;6.788;2023-01-15T10:14:39;20.30;62.00
909;DHT22;441;51.192;6.788;2023-01-15T10:17:18;20.30;61.60
909;DHT22;441;51.192;6.788;2023-01-15T10:19:47;20.40;61.50
909;DHT22;441;51.192;6.788;2023-01-15T10:22:24;20.40;61.20
909;DHT22;441;51.192;6.788;2023-01-15T10:24:55;20.40;60.80
909;DHT22;441;51.192;6.788;2023-01-15T10:27:24;20.50;60.70
909;DHT22;441;51.192;6.788;2023-01-15T10:29:54;20.50;60.30
909;DHT22;441;51.192;6.788;2023-01-15T10:32:35;20.60;59.90
909;DHT22;441;51.192;6.788;2023-01-15T10:38:01;20.60;59.50
909;DHT22;441;51.192;6.788;2023-01-15T10:40:46;20.60;59.20
909;DHT22;441;51.192;6.788;2023-01-15T10:43:21;20.70;59.50
909;DHT22;441;51.192;6.788;2023-01-15T10:45:52;20.80;59.70
909;DHT22;441;51.192;6.788;2023-01-15T10:48:27;20.90;60.60
909;DHT22;441;51.192;6.788;2023-01-15T10:51:00;20.90;63.30
909;DHT22;441;51.192;6.788;2023-01-15T10:53:31;20.90;65.60
909;DHT22;441;51.192;6.788;2023-01-15T10:56:09;20.90;67.50
909;DHT22;441;51.192;6.788;2023-01-15T10:58:44;20.80;68.80
909;DHT22;441;51.192;6.788;2023-01-15T11:01:17;20.90;69.80
909;DHT22;441;51.192;6.788;2023-01-15T11:03:52;20.90;69.50
909;DHT22;441;51.192;6.788;2023-01-15T11:06:23;20.90;68.30
909;DHT22;441;51.192;6.788;2023-01-15T11:08:53;20.90;69.00
909;DHT22;441;51.192;6.788;2023-01-15T11:11:23;21.00;69.20
909;DHT22;441;51.192;6.788;2023-01-15T11:14:31;20.90;69.80
909;DHT22;441;51.192;6.788;2023-01-15T11:17:16;21.00;68.90
909;DHT22;441;51.192;6.788;2023-01-15T11:20:02;20.90;68.60
909;DHT22;441;51.192;6.788;2023-01-15T11:22:30;21.00;67.40
909;DHT22;441;51.192;6.788;2023-01-15T11:24:59;21.10;66.20
909;DHT22;441;51.192;6.788;2023-01-15T11:27:30;21.10;65.00
909;DHT22;441;51.192;6.788;2023-01-15T11:29:59;21.10;64.20
909;DHT22;441;51.192;6.788;2023-01-15T11:32:29;21.10;63.30
909;DHT22;441;51.192;6.788;2023-01-15T11:34:58;21.10;62.60
909;DHT22;441;51.192;6.788;2023-01-15T11:37:25;21.10;61.90
909;DHT22;441;51.192;6.788;2023-01-15T11:39:55;21.00;61.40
909;DHT22;441;51.192;6.788;2023-01-15T11:42:24;20.90;60.60
909;DHT22;441;51.192;6.788;2023-01-15T11:45:14;20.90;60.30
909;DHT22;441;51.192;6.788;2023-01-15T11:48:00;20.90;59.80
909;DHT22;441;51.192;6.788;2023-01-15T11:50:51;20.90;59.40
909;DHT22;441;51.192;6.788;2023-01-15T11:53:21;20.90;59.20
909;DHT22;441;51.192;6.788;2023-01-15T11:55:56;20.80;58.70
909;DHT22;441;51.192;6.788;2023-01-15T11:58:30;20.80;58.40
909;DHT22;441;51.192;6.788;2023-01-15T12:00:58;20.80;58.10
909;DHT22;441;51.192;6.788;2023-01-15T12:03:28;20.80;58.10
909;DHT22;441;51.192;6.788;2023-01-15T12:05:59;20.70;57.80
909;DHT22;441;51.192;6.788;2023-01-15T12:08:42;20.70;57.70
909;DHT22;441;51.192;6.788;2023-01-15T12:11:24;20.70;57.60
909;DHT22;441;51.192;6.788;2023-01-15T12:14:01;20.70;57.40
909;DHT22;441;51.192;6.788;2023-01-15T12:16:36;20.70;57.20
909;DHT22;441;51.192;6.788;2023-01-15T12:19:10;20.70;57.10
909;DHT22;441;51.192;6.788;2023-01-15T12:22:04;20.60;57.00
909;DHT22;441;51.192;6.788;2023-01-15T12:24:55;20.60;56.90
909;DHT22;441;51.192;6.788;2023-01-15T12:27:40;20.60;56.70
909;DHT22;441;51.192;6.788;2023-01-15T12:30:20;20.60;56.70
909;DHT22;441;51.192;6.788;2023-01-15T12:32:53;20.60;56.60
909;DHT22;441;51.192;6.788;2023-01-15T12:35:27;20.50;56.50
909;DHT22;441;51.192;6.788;2023-01-15T12:37:57;20.50;56.40
909;DHT22;441;51.192;6.788;2023-01-15T12:40:29;20.60;56.50
909;DHT22;441;51.192;6.788;2023-01-15T12:43:00;20.60;56.40
909;DHT22;441;51.192;6.788;2023-01-15T12:45:47;20.60;56.30
909;DHT22;441;51.192;6.788;2023-01-15T12:48:18;20.60;56.20
909;DHT22;441;51.192;6.788;2023-01-15T12:50:48;20.60;56.20
909;DHT22;441;51.192;6.788;2023-01-15T12:53:19;20.60;56.10
909;DHT22;441;51.192;6.788;2023-01-15T12:55:52;20.60;56.10
909;DHT22;441;51.192;6.788;2023-01-15T12:58:37;20.60;56.00
909;DHT22;441;51.192;6.788;2023-01-15T13:01:12;20.60;55.90
909;DHT22;441;51.192;6.788;2023-01-15T13:03:48;20.60;55.70
909;DHT22;441;51.192;6.788;2023-01-15T13:06:17;20.60;55.50
909;DHT22;441;51.192;6.788;2023-01-15T13:08:50;20.70;55.50
909;DHT22;441;51.192;6.788;2023-01-15T13:11:20;20.60;55.30
909;DHT22;441;51.192;6.788;2023-01-15T13:13:49;20.60;55.20
909;DHT22;441;51.192;6.788;2023-01-15T13:16:30;20.60;55.00
909;DHT22;441;51.192;6.788;2023-01-15T13:19:18;20.60;55.10
909;DHT22;441;51.192;6.788;2023-01-15T13:21:51;20.60;55.00
909;DHT22;441;51.192;6.788;2023-01-15T13:24:33;20.60;54.80
909;DHT22;441;51.192;6.788;2023-01-15T13:27:19;20.60;54.80
909;DHT22;441;51.192;6.788;2023-01-15T13:30:00;20.60;54.70
909;DHT22;441;51.192;6.788;2023-01-15T13:32:33;20.50;54.60
909;DHT22;441;51.192;6.788;2023-01-15T13:35:04;20.50;54.60
909;DHT22;441;51.192;6.788;2023-01-15T13:37:35;20.50;54.60
909;DHT22;441;51.192;6.788;2023-01-15T13:40:11;20.50;54.60
909;DHT22;441;51.192;6.788;2023-01-15T13:42:44;20.50;54.50
909;DHT22;441;51.192;6.788;2023-01-15T13:45:29;20.50;55.00
909;DHT22;441;51.192;6.788;2023-01-15T13:48:03;20.50;54.50
909;DHT22;441;51.192;6.788;2023-01-15T13:50:32;20.50;54.50
909;DHT22;441;51.192;6.788;2023-01-15T13:53:06;20.50;54.50
909;DHT22;441;51.192;6.788;2023-01-15T13:55:35;20.50;54.50
909;DHT22;441;51.192;6.788;2023-01-15T13:58:16;20.50;54.50
909;DHT22;441;51.192;6.788;2023-01-15T14:00:46;20.50;54.40
909;DHT22;441;51.192;6.788;2023-01-15T14:03:25;20.50;54.30
909;DHT22;441;51.192;6.788;2023-01-15T14:05:56;20.50;54.20
909;DHT22;441;51.192;6.788;2023-01-15T14:08:26;20.50;54.20
909;DHT22;441;51.192;6.788;2023-01-15T14:10:53;20.50;54.10
909;DHT22;441;51.192;6.788;2023-01-15T14:13:50;20.50;54.00
909;DHT22;441;51.192;6.788;2023-01-15T14:16:31;20.50;53.90
909;DHT22;441;51.192;6.788;2023-01-15T14:22:11;20.50;53.80
909;DHT22;441;51.192;6.788;2023-01-15T14:24:52;20.50;53.80
909;DHT22;441;51.192;6.788;2023-01-15T14:27:39;20.50;53.70
909;DHT22;441;51.192;6.788;2023-01-15T14:33:19;20.50;53.70
909;DHT22;441;51.192;6.788;2023-01-15T14:35:51;20.50;53.60
909;DHT22;441;51.192;6.788;2023-01-15T14:38:21;20.50;53.50
909;DHT22;441;51.192;6.788;2023-01-15T14:40:54;20.50;53.50
909;DHT22;441;51.192;6.788;2023-01-15T14:43:25;20.50;53.50
909;DHT22;441;51.192;6.788;2023-01-15T14:45:54;20.50;53.40
909;DHT22;441;51.192;6.788;2023-01-15T14:48:36;20.50;53.30
909;DHT22;441;51.192;6.788;2023-01-15T14:51:07;20.50;53.20
909;DHT22;441;51.192;6.788;2023-01-15T14:53:38;20.50;53.20
909;DHT22;441;51.192;6.788;2023-01-15T14:56:15;20.50;53.20
909;DHT22;441;51.192;6.788;2023-01-15T14:58:48;20.50;53.20
909;DHT22;441;51.192;6.788;2023-01-15T15:01:26;20.50;53.10
909;DHT22;441;51.192;6.788;2023-01-15T15:03:59;20.40;53.00
909;DHT22;441;51.192;6.788;2023-01-15T15:06:27;20.40;53.00
909;DHT22;441;51.192;6.788;2023-01-15T15:08:59;20.40;53.00
909;DHT22;441;51.192;6.788;2023-01-15T15:11:34;20.40;53.00
909;DHT22;441;51.192;6.788;2023-01-15T15:14:19;20.40;53.00
909;DHT22;441;51.192;6.788;2023-01-15T15:16:49;20.40;52.90
909;DHT22;441;51.192;6.788;2023-01-15T15:19:25;20.40;52.90
909;DHT22;441;51.192;6.788;2023-01-15T15:21:56;20.40;52.90
909;DHT22;441;51.192;6.788;2023-01-15T15:24:27;20.40;52.90
909;DHT22;441;51.192;6.788;2023-01-15T15:26:55;20.40;52.90
909;DHT22;441;51.192;6.788;2023-01-15T15:29:22;20.40;53.20
909;DHT22;441;51.192;6.788;2023-01-15T15:31:51;20.30;54.20
909;DHT22;441;51.192;6.788;2023-01-15T15:34:26;20.30;55.30
909;DHT22;441;51.192;6.788;2023-01-15T15:36:54;20.30;55.70
909;DHT22;441;51.192;6.788;2023-01-15T15:39:27;20.20;55.70
909;DHT22;441;51.192;6.788;2023-01-15T15:41:56;20.30;56.00
909;DHT22;441;51.192;6.788;2023-01-15T15:44:48;20.30;55.90
909;DHT22;441;51.192;6.788;2023-01-15T15:47:36;20.30;56.00
909;DHT22;441;51.192;6.788;2023-01-15T15:50:25;20.30;56.10
909;DHT22;441;51.192;6.788;2023-01-15T15:52:52;20.20;56.30
909;DHT22;441;51.192;6.788;2023-01-15T15:55:21;20.30;56.40
909;DHT22;441;51.192;6.788;2023-01-15T15:57:51;20.30;56.60
909;DHT22;441;51.192;6.788;2023-01-15T16:00:25;20.30;56.50
909;DHT22;441;51.192;6.788;2023-01-15T16:02:54;20.30;56.50
909;DHT22;441;51.192;6.788;2023-01-15T16:05:25;20.30;56.60
909;DHT22;441;51.192;6.788;2023-01-15T16:07:54;20.30;56.60
909;DHT22;441;51.192;6.788;2023-01-15T16:10:24;20.30;56.50
909;DHT22;441;51.192;6.788;2023-01-15T16:12:53;20.30;56.50
909;DHT22;441;51.192;6.788;2023-01-15T16:15:22;20.30;56.60
909;DHT22;441;51.192;6.788;2023-01-15T16:17:51;20.30;56.60
909;DHT22;441;51.192;6.788;2023-01-15T16:20:19;20.30;56.70
909;DHT22;441;51.192;6.788;2023-01-15T16:22:52;20.30;56.70
909;DHT22;441;51.192;6.788;2023-01-15T16:25:22;20.30;56.70
909;DHT22;441;51.192;6.788;2023-01-15T16:27:49;20.30;56.70
909;DHT22;441;51.192;6.788;2023-01-15T16:30:17;20.30;56.70
909;DHT22;441;51.192;6.788;2023-01-15T16:32:44;20.30;56.70
909;DHT22;441;51.192;6.788;2023-01-15T16:35:16;20.30;56.70
909;DHT22;441;51.192;6.788;2023-01-15T16:37:48;20.30;56.50
909;DHT22;441;51.192;6.788;2023-01-15T16:40:21;20.30;56.50
909;DHT22;441;51.192;6.788;2023-01-15T16:43:00;20.30;56.50
909;DHT22;441;51.192;6.788;2023-01-15T16:45:27;20.30;56.60
909;DHT22;441;51.192;6.788;2023-01-15T16:48:24;20.30;56.60
909;DHT22;441;51.192;6.788;2023-01-15T16:50:52;20.30;56.60
909;DHT22;441;51.192;6.788;2023-01-15T16:53:31;20.30;56.50
909;DHT22;441;51.192;6.788;2023-01-15T16:56:03;20.30;56.30
909;DHT22;441;51.192;6.788;2023-01-15T16:58:38;20.40;56.40
909;DHT22;441;51.192;6.788;2023-01-15T17:01:29;20.30;56.50
909;DHT22;441;51.192;6.788;2023-01-15T17:03:57;20.30;56.50
909;DHT22;441;51.192;6.788;2023-01-15T17:06:26;20.30;56.40
909;DHT22;441;51.192;6.788;2023-01-15T17:08:55;20.30;56.60
909;DHT22;441;51.192;6.788;2023-01-15T17:11:25;20.30;56.60
909;DHT22;441;51.192;6.788;2023-01-15T17:14:07;20.30;56.60